createdAt,value
2019-03-22T00:00:31.640Z,58.55
2019-03-22T00:03:01.370Z,60.85
2019-03-22T00:05:31.015Z,54.77
2019-03-22T00:08:00.464Z,52.65
2019-03-22T00:10:29.829Z,62.85
2019-03-22T00:12:59.364Z,51.60
2019-03-22T00:15:29.063Z,54.58
2019-03-22T00:17:58.523Z,56.23
2019-03-22T00:20:28.030Z,47.48
2019-03-22T00:22:57.557Z,52.50
2019-03-22T00:25:27.184Z,55.03
2019-03-22T00:27:56.849Z,51.75
2019-03-22T00:30:26.417Z,51.65
2019-03-22T00:32:55.901Z,56.30
2019-03-22T00:35:25.484Z,53.15
2019-03-22T00:37:54.972Z,49.83
2019-03-22T00:40:24.473Z,52.73
2019-03-22T00:42:53.943Z,53.10
2019-03-22T00:45:23.474Z,48.33
2019-03-22T00:47:52.971Z,51.02
2019-03-22T00:50:22.484Z,48.23
2019-03-22T00:52:52.044Z,55.03
2019-03-22T00:55:21.551Z,49.55
2019-03-22T00:57:51.005Z,49.48
2019-03-22T01:00:20.611Z,48.68
2019-03-22T01:02:50.224Z,48.68
2019-03-22T01:05:19.908Z,56.65
2019-03-22T01:07:49.560Z,54.77
2019-03-22T01:10:19.043Z,53.55
2019-03-22T01:12:48.811Z,51.55
2019-03-22T01:15:18.460Z,50.85
2019-03-22T01:17:47.852Z,50.45
2019-03-22T01:20:17.488Z,50.63
2019-03-22T01:22:47.264Z,61.30
2019-03-22T01:25:16.854Z,57.65
2019-03-22T01:27:46.294Z,51.85
2019-03-22T01:30:16.277Z,57.45
2019-03-22T01:32:45.929Z,52.90
2019-03-22T01:35:15.593Z,58.02
2019-03-22T01:37:45.169Z,60.25
2019-03-22T01:40:16.357Z,58.02
2019-03-22T01:42:45.919Z,63.25
2019-03-22T01:45:16.271Z,57.88
2019-03-22T01:47:45.939Z,56.68
2019-03-22T01:50:15.721Z,61.65
2019-03-22T01:52:45.270Z,61.53
2019-03-22T01:55:15.041Z,62.58
2019-03-22T01:57:53.153Z,63.00
2019-03-22T02:00:16.554Z,66.72
2019-03-22T02:02:46.239Z,71.55
2019-03-22T02:05:15.806Z,67.95
2019-03-22T02:07:45.395Z,66.25
2019-03-22T02:10:15.677Z,69.80
2019-03-22T02:12:45.288Z,65.12
2019-03-22T02:15:15.056Z,64.00
2019-03-22T02:17:44.936Z,61.23
2019-03-22T02:20:15.042Z,61.75
2019-03-22T02:22:44.808Z,68.15
2019-03-22T02:25:14.580Z,67.97
2019-03-22T02:27:44.187Z,60.28
2019-03-22T02:30:14.414Z,62.95
2019-03-22T02:32:43.879Z,58.98
2019-03-22T02:35:27.647Z,60.73
2019-03-22T02:37:44.977Z,65.10
2019-03-22T02:40:14.590Z,69.75
2019-03-22T02:42:44.018Z,56.90
2019-03-22T02:45:13.700Z,59.67
2019-03-22T02:47:43.403Z,61.92
2019-03-22T02:50:18.457Z,59.90
2019-03-22T02:52:44.416Z,61.77
2019-03-22T02:55:14.527Z,62.98
2019-03-22T02:57:43.983Z,64.75
2019-03-22T03:00:14.524Z,61.90
2019-03-22T03:02:43.974Z,66.72
2019-03-22T03:05:13.624Z,66.30
2019-03-22T03:07:43.391Z,67.40
2019-03-22T03:10:13.221Z,58.60
2019-03-22T03:12:42.729Z,72.00
2019-03-22T03:15:12.686Z,63.60
2019-03-22T03:17:42.074Z,62.40
2019-03-22T03:20:12.372Z,67.10
2019-03-22T03:22:41.881Z,67.27
2019-03-22T03:25:11.525Z,65.57
2019-03-22T03:27:40.981Z,56.37
2019-03-22T03:30:11.771Z,64.62
2019-03-22T03:32:41.387Z,64.60
2019-03-22T03:35:11.075Z,62.48
2019-03-22T03:37:40.539Z,65.55
2019-03-22T03:40:10.005Z,70.40
2019-03-22T03:42:39.435Z,65.80
2019-03-22T03:45:10.942Z,69.50
2019-03-22T03:47:40.316Z,62.50
2019-03-22T03:50:09.651Z,57.80
2019-03-22T03:52:40.159Z,60.55
2019-03-22T03:55:09.581Z,60.83
2019-03-22T03:57:38.883Z,65.55
2019-03-22T04:00:09.300Z,62.88
2019-03-22T04:02:38.732Z,60.98
2019-03-22T04:05:08.215Z,63.17
2019-03-22T04:07:37.595Z,62.90
2019-03-22T04:10:08.051Z,68.90
2019-03-22T04:12:37.411Z,71.55
2019-03-22T04:15:06.933Z,60.40
2019-03-22T04:17:36.306Z,59.60
2019-03-22T04:20:06.022Z,58.52
2019-03-22T04:22:36.502Z,70.47
2019-03-22T04:25:06.408Z,61.35
2019-03-22T04:27:35.748Z,62.27
2019-03-22T04:30:05.825Z,64.85
2019-03-22T04:32:35.196Z,63.87
2019-03-22T04:35:04.861Z,66.10
2019-03-22T04:37:34.225Z,70.28
2019-03-22T04:40:06.565Z,63.90
2019-03-22T04:42:35.950Z,56.15
2019-03-22T04:45:05.976Z,65.37
2019-03-22T04:47:35.744Z,72.80
2019-03-22T04:50:05.765Z,66.33
2019-03-22T04:52:35.371Z,71.47
2019-03-22T04:55:04.916Z,65.12
2019-03-22T04:57:35.064Z,66.40
2019-03-22T05:00:05.874Z,64.67
2019-03-22T05:02:35.686Z,68.62
2019-03-22T05:05:05.578Z,62.30
2019-03-22T05:07:35.257Z,72.97
2019-03-22T05:10:05.085Z,83.27
2019-03-22T05:12:34.998Z,72.03
2019-03-22T05:15:04.978Z,74.53
2019-03-22T05:17:34.559Z,68.07
2019-03-22T05:20:04.689Z,74.58
2019-03-22T05:22:36.086Z,71.15
2019-03-22T05:25:06.074Z,86.63
2019-03-22T05:27:39.129Z,75.85
2019-03-22T05:30:11.031Z,83.72
2019-03-22T05:32:40.396Z,72.97
2019-03-22T05:35:09.796Z,80.05
2019-03-22T05:37:39.413Z,75.78
2019-03-22T05:40:09.079Z,71.62
2019-03-22T05:42:38.454Z,66.65
2019-03-22T05:45:08.348Z,71.45
2019-03-22T05:47:37.764Z,83.07
2019-03-22T05:50:07.576Z,77.85
2019-03-22T05:52:37.500Z,77.40
2019-03-22T05:55:07.621Z,87.82
2019-03-22T05:57:36.975Z,78.02
2019-03-22T06:00:07.074Z,81.70
2019-03-22T06:02:36.485Z,76.75
2019-03-22T06:05:06.627Z,75.50
2019-03-22T06:07:37.125Z,81.97
2019-03-22T06:10:06.832Z,80.55
2019-03-22T06:12:36.168Z,92.97
2019-03-22T06:15:06.393Z,78.70
2019-03-22T06:17:35.883Z,75.65
2019-03-22T06:20:05.553Z,77.25
2019-03-22T06:22:34.879Z,81.35
2019-03-22T06:25:04.342Z,72.97
2019-03-22T06:27:33.741Z,84.05
2019-03-22T06:30:03.343Z,86.35
2019-03-22T06:32:32.832Z,77.62
2019-03-22T06:35:02.288Z,77.67
2019-03-22T06:37:31.630Z,89.00
2019-03-22T06:40:01.030Z,79.27
2019-03-22T06:42:31.649Z,81.85
2019-03-22T06:45:03.145Z,77.40
2019-03-22T06:47:33.606Z,75.97
2019-03-22T06:50:03.023Z,81.28
2019-03-22T06:52:35.105Z,83.10
2019-03-22T06:55:37.836Z,87.90
2019-03-22T06:58:48.663Z,94.75
2019-03-22T07:01:21.692Z,88.47
2019-03-22T07:03:51.785Z,93.52
2019-03-22T07:06:22.017Z,90.87
2019-03-22T07:08:52.035Z,96.28
2019-03-22T07:11:27.913Z,98.33
2019-03-22T07:13:57.395Z,94.00
2019-03-22T07:16:26.808Z,95.87
2019-03-22T07:18:56.213Z,93.25
2019-03-22T07:21:25.594Z,86.12
2019-03-22T07:23:54.982Z,82.42
2019-03-22T07:26:24.246Z,85.62
2019-03-22T07:28:53.634Z,81.17
2019-03-22T07:31:22.929Z,82.60
2019-03-22T07:33:52.253Z,79.22
2019-03-22T07:36:21.564Z,73.57
2019-03-22T07:38:50.889Z,75.08
2019-03-22T07:41:20.217Z,85.87
2019-03-22T07:43:49.546Z,80.03
2019-03-22T07:46:18.858Z,73.40
2019-03-22T07:48:48.281Z,73.52
2019-03-22T07:51:18.084Z,73.20
2019-03-22T07:53:47.424Z,76.97
2019-03-22T07:56:16.833Z,70.03
2019-03-22T07:58:46.285Z,70.70
2019-03-22T08:01:16.477Z,80.60
2019-03-22T08:03:46.022Z,67.80
2019-03-22T08:06:15.846Z,64.53
2019-03-22T08:08:45.370Z,82.05
2019-03-22T08:11:15.055Z,75.83
2019-03-22T08:13:44.566Z,74.90
2019-03-22T08:16:14.055Z,70.15
2019-03-22T08:18:43.443Z,74.07
2019-03-22T08:21:12.819Z,77.90
2019-03-22T08:23:42.207Z,71.95
2019-03-22T08:26:11.795Z,78.33
2019-03-22T08:28:41.696Z,72.80
2019-03-22T08:31:11.159Z,73.37
2019-03-22T08:33:40.638Z,95.83
2019-03-22T08:36:10.034Z,74.32
2019-03-22T08:38:39.376Z,83.45
2019-03-22T08:41:08.880Z,78.10
2019-03-22T08:43:38.233Z,79.72
2019-03-22T08:46:07.711Z,68.52
2019-03-22T08:48:37.123Z,76.42
2019-03-22T08:51:06.588Z,76.40
2019-03-22T08:53:36.167Z,72.25
2019-03-22T08:56:05.873Z,72.27
2019-03-22T08:58:35.270Z,66.15
2019-03-22T09:01:04.599Z,71.97
2019-03-22T09:03:34.386Z,64.55
2019-03-22T09:06:03.898Z,62.53
2019-03-22T09:08:33.277Z,72.10
2019-03-22T09:11:03.057Z,68.33
2019-03-22T09:13:35.993Z,65.42
2019-03-22T09:16:05.430Z,72.53
2019-03-22T09:18:35.354Z,62.93
2019-03-22T09:21:04.945Z,63.98
2019-03-22T09:23:34.566Z,67.17
2019-03-22T09:26:04.166Z,66.10
2019-03-22T09:28:33.550Z,57.88
2019-03-22T09:31:10.288Z,56.92
2019-03-22T09:33:34.527Z,63.80
2019-03-22T09:36:04.142Z,62.40
2019-03-22T09:38:33.754Z,62.20
2019-03-22T09:41:03.360Z,57.00
2019-03-22T09:43:33.085Z,59.65
2019-03-22T09:46:02.657Z,52.43
2019-03-22T09:48:32.066Z,63.58
2019-03-22T09:51:01.533Z,54.27
2019-03-22T09:53:31.280Z,61.00
2019-03-22T09:56:00.700Z,60.55
2019-03-22T09:58:30.651Z,51.63
2019-03-22T10:01:00.252Z,49.90
2019-03-22T10:03:29.631Z,62.45
2019-03-22T10:05:59.148Z,59.35
2019-03-22T10:08:28.733Z,64.50
2019-03-22T10:10:58.432Z,65.32
2019-03-22T10:13:27.874Z,66.20
2019-03-22T10:15:57.352Z,64.12
2019-03-22T10:18:26.949Z,63.78
2019-03-22T10:20:56.553Z,61.70
2019-03-22T10:23:25.901Z,61.48
2019-03-22T10:25:55.228Z,57.58
2019-03-22T10:28:24.597Z,69.75
2019-03-22T10:30:53.909Z,69.35
2019-03-22T10:33:23.369Z,65.15
2019-03-22T10:35:52.824Z,57.85
2019-03-22T10:38:31.105Z,68.20
2019-03-22T10:40:53.224Z,69.05
2019-03-22T10:43:22.695Z,60.78
2019-03-22T10:45:52.077Z,66.85
2019-03-22T10:48:21.419Z,78.70
2019-03-22T10:50:51.407Z,72.60
2019-03-22T10:53:20.704Z,73.30
2019-03-22T10:55:50.126Z,72.30
2019-03-22T10:58:21.321Z,67.90
2019-03-22T11:00:50.633Z,65.30
2019-03-22T11:03:20.023Z,67.40
2019-03-22T11:05:49.415Z,79.25
2019-03-22T11:08:18.774Z,87.45
2019-03-22T11:10:48.172Z,73.78
2019-03-22T11:13:17.622Z,75.30
2019-03-22T11:15:48.800Z,71.65
2019-03-22T11:18:18.559Z,67.58
2019-03-22T11:20:48.023Z,69.15
2019-03-22T11:23:17.734Z,68.40
2019-03-22T11:25:47.100Z,63.75
2019-03-22T11:28:16.502Z,67.32
2019-03-22T11:30:45.982Z,64.85
2019-03-22T11:33:15.405Z,75.42
2019-03-22T11:35:44.769Z,69.20
2019-03-22T11:38:14.586Z,63.65
2019-03-22T11:40:44.191Z,68.92
2019-03-22T11:43:13.759Z,66.02
2019-03-22T11:45:44.453Z,62.70
2019-03-22T11:48:14.041Z,67.40
2019-03-22T11:50:43.573Z,62.23
2019-03-22T11:53:13.141Z,63.20
2019-03-22T11:55:45.573Z,62.70
2019-03-22T11:58:14.911Z,63.10
2019-03-22T12:00:44.220Z,70.17
2019-03-22T12:03:13.537Z,71.67
2019-03-22T12:05:42.917Z,65.20
2019-03-22T12:08:12.323Z,59.77
2019-03-22T12:10:41.707Z,58.00
2019-03-22T12:13:10.982Z,60.23
2019-03-22T12:15:40.410Z,69.03
2019-03-22T12:18:09.717Z,64.05
2019-03-22T12:20:39.068Z,61.63
2019-03-22T12:23:08.489Z,57.08
2019-03-22T12:25:37.855Z,56.00
2019-03-22T12:28:07.220Z,73.17
2019-03-22T12:30:36.633Z,67.62
2019-03-22T12:33:06.016Z,66.90
2019-03-22T12:35:35.402Z,65.25
2019-03-22T12:38:04.888Z,66.35
2019-03-22T12:40:34.238Z,62.55
2019-03-22T12:43:03.613Z,68.95
2019-03-22T12:45:33.473Z,75.90
2019-03-22T12:48:02.931Z,66.42
2019-03-22T12:50:32.299Z,69.67
2019-03-22T12:53:01.680Z,70.65
2019-03-22T12:55:31.054Z,70.62
2019-03-22T12:58:00.424Z,67.53
2019-03-22T13:00:29.926Z,69.12
2019-03-22T13:02:59.315Z,75.37
2019-03-22T13:05:28.609Z,66.65
2019-03-22T13:07:57.915Z,70.87
2019-03-22T13:10:27.912Z,72.17
2019-03-22T13:12:57.321Z,63.55
2019-03-22T13:15:26.692Z,68.50
2019-03-22T13:17:56.006Z,65.55
2019-03-22T13:20:25.286Z,70.30
2019-03-22T13:22:54.560Z,72.92
2019-03-22T13:25:24.044Z,66.53
2019-03-22T13:27:53.355Z,63.13
2019-03-22T13:30:33.348Z,66.28
2019-03-22T13:33:02.816Z,64.50
2019-03-22T13:35:32.169Z,72.80
2019-03-22T13:38:01.577Z,65.28
2019-03-22T13:40:31.197Z,62.33
2019-03-22T13:43:01.168Z,70.97
2019-03-22T13:45:30.648Z,65.67
2019-03-22T13:47:59.941Z,70.47
2019-03-22T13:50:29.402Z,61.73
2019-03-22T13:52:58.924Z,68.67
2019-03-22T13:55:28.240Z,64.07
2019-03-22T13:57:57.512Z,71.02
2019-03-22T14:00:27.041Z,75.45
2019-03-22T14:03:03.167Z,72.97
2019-03-22T14:05:27.352Z,69.37
2019-03-22T14:07:56.663Z,61.35
2019-03-22T14:10:30.633Z,64.60
2019-03-22T14:13:00.461Z,66.12
2019-03-22T14:15:29.924Z,72.72
2019-03-22T14:17:59.573Z,66.42
2019-03-22T14:20:29.277Z,73.10
2019-03-22T14:22:58.718Z,70.47
2019-03-22T14:25:28.200Z,66.55
2019-03-22T14:27:57.778Z,66.90
2019-03-22T14:30:27.182Z,71.70
2019-03-22T14:32:56.695Z,73.47
2019-03-22T14:35:28.367Z,71.72
2019-03-22T14:37:58.037Z,66.55
2019-03-22T14:40:27.582Z,79.25
2019-03-22T14:42:57.197Z,72.00
2019-03-22T14:45:26.671Z,62.75
2019-03-22T14:47:55.989Z,66.60
2019-03-22T14:50:25.424Z,64.50
2019-03-22T14:52:54.835Z,69.03
2019-03-22T14:55:24.135Z,67.45
2019-03-22T14:57:53.732Z,84.55
2019-03-22T15:00:23.124Z,67.50
2019-03-22T15:02:52.571Z,62.00
2019-03-22T15:05:21.997Z,71.47
2019-03-22T15:07:51.427Z,64.25
2019-03-22T15:10:20.750Z,72.95
2019-03-22T15:12:50.895Z,64.42
2019-03-22T15:15:35.355Z,65.35
2019-03-22T15:18:15.408Z,61.63
2019-03-22T15:21:02.659Z,63.92
2019-03-22T15:23:45.217Z,64.20
2019-03-22T15:26:47.907Z,55.15
2019-03-22T15:29:37.033Z,68.78
2019-03-22T15:32:23.948Z,67.53
2019-03-22T15:35:09.739Z,61.88
2019-03-22T15:37:56.707Z,67.80
2019-03-22T15:40:26.040Z,64.62
2019-03-22T15:42:55.413Z,66.75
2019-03-22T15:45:24.750Z,66.72
2019-03-22T15:47:54.083Z,66.55
2019-03-22T15:50:23.494Z,61.77
2019-03-22T15:52:52.833Z,65.57
2019-03-22T15:55:22.259Z,62.85
2019-03-22T15:57:51.628Z,63.52
2019-03-22T16:00:20.952Z,63.68
2019-03-22T16:02:50.366Z,60.98
2019-03-22T16:05:20.113Z,67.05
2019-03-22T16:07:49.728Z,63.30
2019-03-22T16:10:19.192Z,62.73
2019-03-22T16:12:48.587Z,69.95
2019-03-22T16:15:18.362Z,73.07
2019-03-22T16:17:47.684Z,73.15
2019-03-22T16:20:17.373Z,64.70
2019-03-22T16:22:46.684Z,66.60
2019-03-22T16:25:16.101Z,66.07
2019-03-22T16:27:45.432Z,62.62
2019-03-22T16:30:15.097Z,74.20
2019-03-22T16:32:44.468Z,74.95
2019-03-22T16:35:15.202Z,72.70
2019-03-22T16:37:44.508Z,71.02
2019-03-22T16:40:23.854Z,74.12
2019-03-22T16:42:46.040Z,77.35
2019-03-22T16:45:35.580Z,70.67
2019-03-22T16:48:05.505Z,76.33
2019-03-22T16:50:35.150Z,66.05
2019-03-22T16:53:04.638Z,73.00
2019-03-22T16:55:34.039Z,69.67
2019-03-22T16:58:03.524Z,74.87
2019-03-22T17:00:32.948Z,80.75
2019-03-22T17:03:02.464Z,74.42
2019-03-22T17:05:32.618Z,70.03
2019-03-22T17:08:01.905Z,75.57
2019-03-22T17:10:31.265Z,74.00
2019-03-22T17:13:00.540Z,73.35
2019-03-22T17:15:29.877Z,77.27
2019-03-22T17:17:59.199Z,79.53
2019-03-22T17:20:28.583Z,78.78
2019-03-22T17:22:57.942Z,76.70
2019-03-22T17:25:27.349Z,79.60
2019-03-22T17:27:57.866Z,74.32
2019-03-22T17:30:27.451Z,82.65
2019-03-22T17:32:57.244Z,76.72
2019-03-22T17:35:26.761Z,76.37
2019-03-22T17:37:56.663Z,71.87
2019-03-22T17:40:26.216Z,76.85
2019-03-22T17:43:06.067Z,76.28
2019-03-22T17:45:36.118Z,81.60
2019-03-22T17:48:06.171Z,76.60
2019-03-22T17:50:35.737Z,74.82
2019-03-22T17:53:10.100Z,79.40
2019-03-22T17:55:52.163Z,84.83
2019-03-22T17:58:32.225Z,76.17
2019-03-22T18:01:04.353Z,75.75
2019-03-22T18:03:36.894Z,76.37
2019-03-22T18:06:09.165Z,75.60
2019-03-22T18:08:39.117Z,71.62
2019-03-22T18:11:10.474Z,76.57
2019-03-22T18:13:46.976Z,80.62
2019-03-22T18:16:16.900Z,83.62
2019-03-22T18:18:50.811Z,82.95
2019-03-22T18:21:21.797Z,78.45
2019-03-22T18:23:56.937Z,70.92
2019-03-22T18:26:26.701Z,81.00
2019-03-22T18:28:57.995Z,76.70
2019-03-22T18:31:27.754Z,85.85
2019-03-22T18:34:04.664Z,87.12
2019-03-22T18:36:36.375Z,93.45
2019-03-22T18:39:08.517Z,80.97
2019-03-22T18:41:40.617Z,74.42
2019-03-22T18:44:10.706Z,86.10
2019-03-22T18:46:40.719Z,83.52
2019-03-22T18:49:10.818Z,77.08
2019-03-22T18:51:40.530Z,85.87
2019-03-22T18:54:10.489Z,80.20
2019-03-22T18:56:40.393Z,81.02
2019-03-22T18:59:09.904Z,99.20
2019-03-22T19:01:40.209Z,84.30
2019-03-22T19:04:13.017Z,87.33
2019-03-22T19:06:42.828Z,96.65
2019-03-22T19:09:12.577Z,99.42
2019-03-22T19:11:42.392Z,110.28
2019-03-22T19:14:12.162Z,89.80
2019-03-22T19:16:44.738Z,94.13
2019-03-22T19:19:15.893Z,96.28
2019-03-22T19:21:47.065Z,103.92
2019-03-22T19:24:16.484Z,104.00
2019-03-22T19:26:45.925Z,99.07
2019-03-22T19:29:15.476Z,107.85
2019-03-22T19:31:44.992Z,96.72
2019-03-22T19:34:14.502Z,102.32
2019-03-22T19:36:46.313Z,104.85
2019-03-22T19:39:15.810Z,111.90
2019-03-22T19:41:45.272Z,107.55
2019-03-22T19:44:14.694Z,101.45
2019-03-22T19:46:44.343Z,110.55
2019-03-22T19:49:13.742Z,103.53
2019-03-22T19:51:43.135Z,107.25
2019-03-22T19:54:12.546Z,111.32
2019-03-22T19:56:42.004Z,105.45
2019-03-22T19:59:11.500Z,117.05
2019-03-22T20:01:40.959Z,112.75
2019-03-22T20:04:10.350Z,123.67
2019-03-22T20:06:39.780Z,119.65
2019-03-22T20:09:09.868Z,113.50
2019-03-22T20:11:39.339Z,126.35
2019-03-22T20:14:08.752Z,117.00
2019-03-22T20:16:38.529Z,108.45
2019-03-22T20:19:07.993Z,107.12
2019-03-22T20:21:37.285Z,116.25
2019-03-22T20:24:06.607Z,116.57
2019-03-22T20:26:36.037Z,108.52
2019-03-22T20:29:05.356Z,105.05
2019-03-22T20:31:34.655Z,115.32
2019-03-22T20:34:04.210Z,125.50
2019-03-22T20:36:33.630Z,117.25
2019-03-22T20:39:04.447Z,111.77
2019-03-22T20:41:34.457Z,112.22
2019-03-22T20:44:03.931Z,127.58
2019-03-22T20:46:33.287Z,118.02
2019-03-22T20:49:05.082Z,124.90
2019-03-22T20:51:33.746Z,121.65
2019-03-22T20:54:03.365Z,132.95
2019-03-22T20:56:35.614Z,135.68
2019-03-22T20:59:05.404Z,115.62
2019-03-22T21:01:34.960Z,130.12
2019-03-22T21:04:04.536Z,143.80
2019-03-22T21:06:33.968Z,133.00
2019-03-22T21:09:04.350Z,132.78
2019-03-22T21:11:33.733Z,134.18
2019-03-22T21:14:03.350Z,142.22
2019-03-22T21:16:32.998Z,147.00
2019-03-22T21:19:02.472Z,142.03
2019-03-22T21:21:36.363Z,142.72
2019-03-22T21:24:03.086Z,140.68
2019-03-22T21:26:32.436Z,138.77
2019-03-22T21:29:08.749Z,136.45
2019-03-22T21:31:38.261Z,134.53
2019-03-22T21:34:07.604Z,158.18
2019-03-22T21:36:40.668Z,139.47
2019-03-22T21:39:10.230Z,147.68
2019-03-22T21:41:39.557Z,134.25
2019-03-22T21:44:08.822Z,142.30
2019-03-22T21:46:38.276Z,143.72
2019-03-22T21:49:07.737Z,148.30
2019-03-22T21:51:37.160Z,151.32
2019-03-22T21:54:06.481Z,148.40
2019-03-22T21:56:35.878Z,137.55
2019-03-22T21:59:05.802Z,152.45
2019-03-22T22:01:35.278Z,133.37
2019-03-22T22:04:04.596Z,154.00
2019-03-22T22:06:34.007Z,161.50
2019-03-22T22:09:04.521Z,147.53
2019-03-22T22:11:33.982Z,164.82
2019-03-22T22:14:03.299Z,149.55
2019-03-22T22:16:32.749Z,144.68
2019-03-22T22:19:02.133Z,154.57
2019-03-22T22:21:31.986Z,159.30
2019-03-22T22:24:01.418Z,153.25
2019-03-22T22:26:31.005Z,147.75
2019-03-22T22:29:00.360Z,146.15
2019-03-22T22:31:29.707Z,147.00
2019-03-22T22:33:59.119Z,169.55
2019-03-22T22:36:28.496Z,161.85
2019-03-22T22:38:57.895Z,161.00
2019-03-22T22:41:27.214Z,173.62
2019-03-22T22:43:56.607Z,173.53
2019-03-22T22:46:25.986Z,157.72
2019-03-22T22:48:55.745Z,150.50
2019-03-22T22:51:25.217Z,147.85
2019-03-22T22:53:54.563Z,168.78
2019-03-22T22:56:23.948Z,169.65
2019-03-22T22:58:53.385Z,160.10
2019-03-22T23:01:22.927Z,170.97
2019-03-22T23:03:52.368Z,169.65
2019-03-22T23:06:21.773Z,171.02
2019-03-22T23:08:51.624Z,164.40
2019-03-22T23:11:21.386Z,175.32
2019-03-22T23:13:50.680Z,164.45
2019-03-22T23:16:20.020Z,156.82
2019-03-22T23:18:49.482Z,159.32
2019-03-22T23:21:18.751Z,161.07
2019-03-22T23:23:48.091Z,159.03
2019-03-22T23:26:17.404Z,153.70
2019-03-22T23:28:46.724Z,157.35
2019-03-22T23:31:16.034Z,151.95
2019-03-22T23:33:45.356Z,148.20
2019-03-22T23:36:20.297Z,164.22
2019-03-22T23:38:45.723Z,152.78
2019-03-22T23:41:17.168Z,142.28
2019-03-22T23:43:46.533Z,149.60
2019-03-22T23:46:15.929Z,166.00
2019-03-22T23:48:45.277Z,147.65
2019-03-22T23:51:14.544Z,161.18
2019-03-22T23:53:43.860Z,164.22
2019-03-22T23:56:13.222Z,152.75
2019-03-22T23:58:42.541Z,173.53
